ZBHH METAR and TAF | Updated Today

ZBHH METAR

Baita International Airport

Observation time: 39 min. ago

ZBHH 292000Z 04003MPS CAVOK 11/05 Q1013 NOSIG

Need help? Read our tutorial on how to read METARs or read the parsed version below.

Baita International Airport (ZBHH) METAR

  • Weather conditions on Thu, 29 Sep 2022 20:00:00 +0000 (39 min. ago):
  • Present conditions: Dry
  • Clouds: Clear skies
  • Visibility: Greater than 10 km
  • Wind: 40 degrees at 3 knots
  • Temperature: 11 celsius
  • Dew point: 5 celsius
  • Pressure: 1013 millibars
  • Remarks: None


Useful to know...

ZBHH TAF

Baita International Airport

TAF ZBHH 291500Z 2918/3018 23004MPS CAVOK TX27/3007Z TN09/2922Z
Observation time: 5:39 hr. ago
Need help? Read our tutorial on how to read TAFs or read the parsed version below.

Parsed version of TAF for Baita International Airport (ZBHH)

  • From 29 September at 18:00 UTC, to day 30 of the month at 18:00 UTC
  • Visibility: Greater than 10 km
  • Wind: 230 degrees at 4

Airports near ZBHH

No airports found within 100nm radius.